createdAt,value
2023-05-04T00:00:19.958Z,101928.69
2023-05-04T00:02:47.155Z,101935.09
2023-05-04T00:05:14.528Z,101920.75
2023-05-04T00:07:41.700Z,101911.94
2023-05-04T00:10:09.471Z,101913.84
2023-05-04T00:12:36.706Z,101917.47
2023-05-04T00:15:04.963Z,101904.13
2023-05-04T00:17:32.272Z,101899.69
2023-05-04T00:19:59.094Z,101883.66
2023-05-04T00:22:26.073Z,101889.22
2023-05-04T00:24:52.819Z,101890.16
2023-05-04T00:27:19.690Z,101885.84
2023-05-04T00:29:46.484Z,101886.00
2023-05-04T00:32:13.340Z,101883.53
2023-05-04T00:34:41.595Z,101877.41
2023-05-04T00:37:08.462Z,101876.56
2023-05-04T00:39:35.511Z,101878.56
2023-05-04T00:42:03.178Z,101866.22
2023-05-04T00:44:30.057Z,101865.50
2023-05-04T00:46:58.383Z,101864.78
2023-05-04T00:49:26.459Z,101862.25
2023-05-04T00:51:56.989Z,101863.22
2023-05-04T00:54:25.876Z,101854.41
2023-05-04T00:56:53.432Z,101857.28
2023-05-04T00:59:20.408Z,101843.88
2023-05-04T01:01:47.256Z,101841.38
2023-05-04T01:04:16.024Z,101843.28
2023-05-04T01:07:10.131Z,101848.09
2023-05-04T01:10:02.019Z,101844.59
2023-05-04T01:12:56.117Z,101836.72
2023-05-04T01:15:23.926Z,101837.00
2023-05-04T01:17:50.770Z,101835.38
2023-05-04T01:20:17.587Z,101840.91
2023-05-04T01:22:45.093Z,101832.91
2023-05-04T01:25:12.057Z,101832.09
2023-05-04T01:28:19.249Z,101832.28
2023-05-04T01:30:51.563Z,101827.06
2023-05-04T01:33:19.790Z,101835.28
2023-05-04T01:35:47.445Z,101823.66
2023-05-04T01:38:14.518Z,101823.78
2023-05-04T01:40:41.381Z,101830.25
2023-05-04T01:43:08.222Z,101825.81
2023-05-04T01:45:35.148Z,101821.56
2023-05-04T01:48:02.098Z,101827.06
2023-05-04T01:50:29.015Z,101826.38
2023-05-04T01:52:55.838Z,101829.19
2023-05-04T01:55:22.716Z,101830.25
2023-05-04T01:57:49.557Z,101834.00
2023-05-04T02:00:16.782Z,101826.91
2023-05-04T02:02:44.546Z,101833.25
2023-05-04T02:05:15.918Z,101828.09
2023-05-04T02:07:42.774Z,101828.16
2023-05-04T02:10:10.015Z,101832.78
2023-05-04T02:12:36.999Z,101826.59
2023-05-04T02:15:04.328Z,101823.09
2023-05-04T02:17:31.228Z,101825.06
2023-05-04T02:19:58.051Z,101831.31
2023-05-04T02:22:24.862Z,101826.03
2023-05-04T02:24:52.966Z,101824.31
2023-05-04T02:27:20.689Z,101821.63
2023-05-04T02:29:47.506Z,101813.81
2023-05-04T02:32:14.541Z,101812.06
2023-05-04T02:34:41.401Z,101813.06
2023-05-04T02:37:08.282Z,101805.88
2023-05-04T02:39:35.245Z,101811.31
2023-05-04T02:42:03.015Z,101812.31
2023-05-04T02:44:29.824Z,101812.44
2023-05-04T02:46:56.937Z,101805.41
2023-05-04T02:49:23.807Z,101809.06
2023-05-04T02:51:51.479Z,101811.00
2023-05-04T02:54:18.337Z,101805.78
2023-05-04T02:56:45.081Z,101798.69
2023-05-04T02:59:11.915Z,101807.84
2023-05-04T03:01:38.759Z,101804.34
2023-05-04T03:04:07.466Z,101814.41
2023-05-04T03:06:34.335Z,101801.97
2023-05-04T03:09:01.436Z,101801.22
2023-05-04T03:11:28.245Z,101804.03
2023-05-04T03:13:55.074Z,101790.59
2023-05-04T03:16:22.143Z,101791.56
2023-05-04T03:18:50.394Z,101797.09
2023-05-04T03:21:17.281Z,101791.81
2023-05-04T03:23:44.225Z,101794.56
2023-05-04T03:26:11.118Z,101798.22
2023-05-04T03:28:37.992Z,101794.72
2023-05-04T03:31:04.851Z,101787.69
2023-05-04T03:33:31.874Z,101786.81
2023-05-04T03:35:59.007Z,101786.94
2023-05-04T03:38:26.060Z,101791.44
2023-05-04T03:40:53.177Z,101780.69
2023-05-04T03:43:20.076Z,101784.44
2023-05-04T03:45:46.893Z,101782.69
2023-05-04T03:48:13.752Z,101772.91
2023-05-04T03:50:42.331Z,101772.09
2023-05-04T03:53:09.149Z,101773.97
2023-05-04T03:55:36.039Z,101762.31
2023-05-04T03:58:03.322Z,101769.50
2023-05-04T04:00:31.453Z,101757.94
2023-05-04T04:03:08.113Z,101768.69
2023-05-04T04:05:36.193Z,101763.44
2023-05-04T04:08:03.393Z,101769.75
2023-05-04T04:10:31.468Z,101762.63
2023-05-04T04:12:58.326Z,101767.06
2023-05-04T04:15:25.236Z,101765.31
2023-05-04T04:17:52.118Z,101765.31
2023-05-04T04:20:19.114Z,101760.81
2023-05-04T04:22:46.186Z,101763.44
2023-05-04T04:25:13.630Z,101763.44
2023-05-04T04:27:41.262Z,101766.94
2023-05-04T04:30:09.138Z,101761.44
2023-05-04T04:32:36.063Z,101757.84
2023-05-04T04:35:03.517Z,101755.81
2023-05-04T04:37:30.295Z,101754.69
2023-05-04T04:39:57.082Z,101755.34
2023-05-04T04:42:23.983Z,101747.69
2023-05-04T04:44:50.806Z,101749.84
2023-05-04T04:47:18.250Z,101758.78
2023-05-04T04:49:45.061Z,101758.28
2023-05-04T04:52:12.601Z,101747.41
2023-05-04T04:54:39.432Z,101750.81
2023-05-04T04:57:06.280Z,101747.78
2023-05-04T04:59:33.119Z,101752.91
2023-05-04T05:02:00.640Z,101750.19
2023-05-04T05:04:28.175Z,101753.84
2023-05-04T05:06:55.029Z,101755.75
2023-05-04T05:09:21.852Z,101753.84
2023-05-04T05:11:48.669Z,101760.84
2023-05-04T05:14:15.530Z,101762.56
2023-05-04T05:16:42.413Z,101756.13
2023-05-04T05:19:09.193Z,101762.31
2023-05-04T05:21:35.979Z,101764.06
2023-05-04T05:24:03.019Z,101754.19
2023-05-04T05:26:30.528Z,101760.22
2023-05-04T05:28:57.515Z,101760.94
2023-05-04T05:31:24.361Z,101758.19
2023-05-04T05:33:51.402Z,101760.63
2023-05-04T05:36:18.234Z,101764.84
2023-05-04T05:38:45.138Z,101766.34
2023-05-04T05:41:12.241Z,101764.91
2023-05-04T05:43:39.126Z,101764.34
2023-05-04T05:46:06.908Z,101768.28
2023-05-04T05:48:34.347Z,101767.84
2023-05-04T05:51:01.374Z,101760.41
2023-05-04T05:53:28.326Z,101751.09
2023-05-04T05:55:55.150Z,101751.31
2023-05-04T05:58:21.996Z,101749.59
2023-05-04T06:00:52.379Z,101758.03
2023-05-04T06:03:19.620Z,101758.22
2023-05-04T06:05:46.683Z,101754.72
2023-05-04T06:08:13.518Z,101749.34
2023-05-04T06:10:40.376Z,101748.78
2023-05-04T06:13:07.215Z,101749.31
2023-05-04T06:15:34.952Z,101744.06
2023-05-04T06:18:01.969Z,101742.63
2023-05-04T06:20:29.270Z,101742.44
2023-05-04T06:22:57.319Z,101735.31
2023-05-04T06:25:24.636Z,101730.66
2023-05-04T06:27:51.519Z,101727.53
2023-05-04T06:30:18.515Z,101728.78
2023-05-04T06:32:45.383Z,101718.50
2023-05-04T06:35:12.383Z,101717.13
2023-05-04T06:37:39.375Z,101712.06
2023-05-04T06:40:07.985Z,101720.34
2023-05-04T06:42:35.100Z,101710.59
2023-05-04T06:45:02.227Z,101716.75
2023-05-04T06:47:29.264Z,101707.66
2023-05-04T06:49:56.069Z,101711.38
2023-05-04T06:52:22.910Z,101715.47
2023-05-04T06:54:49.682Z,101709.69
2023-05-04T06:57:16.544Z,101714.53
2023-05-04T06:59:43.317Z,101713.44
2023-05-04T07:02:10.286Z,101717.34
2023-05-04T07:04:37.154Z,101709.25
2023-05-04T07:07:04.083Z,101706.53
2023-05-04T07:09:30.922Z,101712.91
2023-05-04T07:11:57.746Z,101704.75
2023-05-04T07:14:24.655Z,101705.09
2023-05-04T07:16:51.582Z,101698.34
2023-05-04T07:19:20.534Z,101689.09
2023-05-04T07:21:47.584Z,101686.31
2023-05-04T07:24:14.794Z,101684.28
2023-05-04T07:26:41.632Z,101689.56
2023-05-04T07:29:09.458Z,101688.47
2023-05-04T07:31:36.571Z,101688.75
2023-05-04T07:34:03.484Z,101678.34
2023-05-04T07:36:30.716Z,101673.94
2023-05-04T07:38:57.727Z,101676.81
2023-05-04T07:41:24.492Z,101676.09
2023-05-04T07:43:51.286Z,101682.59
2023-05-04T07:46:18.194Z,101676.28
2023-05-04T07:48:45.047Z,101672.56
2023-05-04T07:51:16.273Z,101668.59
2023-05-04T07:53:43.712Z,101666.81
2023-05-04T07:56:14.176Z,101666.59
2023-05-04T07:58:42.050Z,101668.78
2023-05-04T08:01:08.844Z,101669.00
2023-05-04T08:03:36.394Z,101669.72
2023-05-04T08:06:03.381Z,101661.22
2023-05-04T08:08:30.440Z,101665.91
2023-05-04T08:11:07.948Z,101659.13
2023-05-04T08:13:46.471Z,101655.22
2023-05-04T08:16:13.733Z,101652.38
2023-05-04T08:18:40.670Z,101649.88
2023-05-04T08:21:07.683Z,101656.81
2023-05-04T08:23:35.990Z,101660.69
2023-05-04T08:26:04.526Z,101651.38
2023-05-04T08:28:35.770Z,101654.72
2023-05-04T08:31:03.860Z,101654.84
2023-05-04T08:33:30.773Z,101642.53
2023-05-04T08:35:58.328Z,101639.41
2023-05-04T08:38:25.211Z,101629.53
2023-05-04T08:40:52.797Z,101624.78
2023-05-04T08:43:19.711Z,101627.69
2023-05-04T08:45:46.850Z,101632.47
2023-05-04T08:48:14.003Z,101626.31
2023-05-04T08:50:41.303Z,101628.38
2023-05-04T08:53:13.757Z,101635.56
2023-05-04T08:55:43.945Z,101619.16
2023-05-04T08:58:13.524Z,101628.09
2023-05-04T09:00:43.492Z,101629.94
2023-05-04T09:03:12.460Z,101624.44
2023-05-04T09:05:41.894Z,101620.50
2023-05-04T09:08:08.991Z,101609.34
2023-05-04T09:10:36.744Z,101597.88
2023-05-04T09:13:03.772Z,101594.09
2023-05-04T09:15:31.554Z,101585.94
2023-05-04T09:18:03.601Z,101585.38
2023-05-04T09:20:42.641Z,101578.25
2023-05-04T09:23:09.748Z,101582.13
2023-05-04T09:25:56.654Z,101583.66
2023-05-04T09:28:39.325Z,101583.31
2023-05-04T09:31:07.693Z,101581.31
2023-05-04T09:33:34.958Z,101582.31
2023-05-04T09:36:21.100Z,101578.34
2023-05-04T09:38:48.911Z,101576.94
2023-05-04T09:41:16.215Z,101586.09
2023-05-04T09:43:45.382Z,101574.66
2023-05-04T09:46:19.430Z,101568.78
2023-05-04T09:48:55.207Z,101575.09
2023-05-04T09:51:27.564Z,101566.13
2023-05-04T09:53:54.740Z,101561.91
2023-05-04T09:56:33.720Z,101571.75
2023-05-04T09:59:00.601Z,101569.44
2023-05-04T10:01:29.863Z,101557.41
2023-05-04T10:03:57.041Z,101562.78
2023-05-04T10:06:24.964Z,101550.44
2023-05-04T10:08:52.103Z,101554.66
2023-05-04T10:11:20.352Z,101538.56
2023-05-04T10:13:49.388Z,101549.94
2023-05-04T10:16:45.247Z,101544.47
2023-05-04T10:19:31.195Z,101529.69
2023-05-04T10:22:34.090Z,101525.53
2023-05-04T10:25:34.735Z,101528.94
2023-05-04T10:28:05.286Z,101520.31
2023-05-04T10:30:32.399Z,101516.88
2023-05-04T10:33:02.165Z,101509.66
2023-05-04T10:35:29.085Z,101510.69
2023-05-04T10:37:56.872Z,101501.09
2023-05-04T10:40:36.732Z,101499.03
2023-05-04T10:43:04.164Z,101490.75
2023-05-04T10:45:40.000Z,101483.69
2023-05-04T10:48:09.533Z,101487.47
2023-05-04T10:50:45.044Z,101477.28
2023-05-04T10:53:16.164Z,101477.97
2023-05-04T10:55:46.157Z,101464.91
2023-05-04T10:58:16.761Z,101461.81
2023-05-04T11:00:47.178Z,101450.09
2023-05-04T11:03:15.313Z,101448.91
2023-05-04T11:05:54.538Z,101441.31
2023-05-04T11:08:26.831Z,101433.47
2023-05-04T11:11:06.854Z,101425.53
2023-05-04T11:13:35.477Z,101414.28
2023-05-04T11:16:02.589Z,101412.75
2023-05-04T11:18:34.601Z,101409.75
2023-05-04T11:21:02.523Z,101406.38
2023-05-04T11:23:30.320Z,101402.81
2023-05-04T11:25:57.265Z,101404.88
2023-05-04T11:28:37.490Z,101402.47
2023-05-04T11:31:15.522Z,101400.59
2023-05-04T11:33:54.804Z,101389.91
2023-05-04T11:36:22.781Z,101398.47
2023-05-04T11:38:50.203Z,101390.03
2023-05-04T11:41:17.188Z,101385.34
2023-05-04T11:43:46.653Z,101381.75
2023-05-04T11:46:16.498Z,101391.63
2023-05-04T11:48:44.463Z,101402.41
2023-05-04T11:51:11.374Z,101386.59
2023-05-04T11:53:40.656Z,101395.66
2023-05-04T11:56:11.195Z,101387.88
2023-05-04T11:58:38.178Z,101388.47
2023-05-04T12:01:05.372Z,101374.09
2023-05-04T12:03:52.237Z,101381.34
2023-05-04T12:06:32.364Z,101368.28
2023-05-04T12:09:06.583Z,101371.19
2023-05-04T12:11:35.303Z,101356.69
2023-05-04T12:14:07.045Z,101356.44
2023-05-04T12:16:34.294Z,101361.97
2023-05-04T12:19:06.220Z,101363.25
2023-05-04T12:21:35.185Z,101364.72
2023-05-04T12:24:03.653Z,101360.13
2023-05-04T12:26:30.589Z,101361.13
2023-05-04T12:28:57.518Z,101346.09
2023-05-04T12:31:25.218Z,101351.97
2023-05-04T12:33:52.814Z,101351.50
2023-05-04T12:36:19.933Z,101354.41
2023-05-04T12:38:46.906Z,101336.50
2023-05-04T12:41:14.035Z,101328.50
2023-05-04T12:43:41.344Z,101323.97
2023-05-04T12:46:08.374Z,101324.44
2023-05-04T12:48:35.438Z,101310.16
2023-05-04T12:51:04.910Z,101314.25
2023-05-04T12:53:32.395Z,101317.53
2023-05-04T12:56:01.216Z,101314.13
2023-05-04T12:58:28.735Z,101319.00
2023-05-04T13:00:57.793Z,101316.44
2023-05-04T13:03:24.824Z,101307.78
2023-05-04T13:05:52.371Z,101298.03
2023-05-04T13:08:19.865Z,101297.91
2023-05-04T13:10:47.238Z,101303.41
2023-05-04T13:13:17.518Z,101294.56
2023-05-04T13:15:45.257Z,101287.78
2023-05-04T13:18:13.068Z,101292.16
2023-05-04T13:20:40.820Z,101279.72
2023-05-04T13:23:08.052Z,101287.28
2023-05-04T13:25:34.949Z,101274.22
2023-05-04T13:28:01.843Z,101279.38
2023-05-04T13:30:29.402Z,101263.59
2023-05-04T13:32:56.354Z,101267.66
2023-05-04T13:35:23.904Z,101263.84
2023-05-04T13:37:51.490Z,101261.84
2023-05-04T13:40:18.565Z,101252.31
2023-05-04T13:42:45.475Z,101241.56
2023-05-04T13:45:13.166Z,101230.03
2023-05-04T13:47:40.687Z,101232.00
2023-05-04T13:50:08.555Z,101236.53
2023-05-04T13:52:36.968Z,101228.16
2023-05-04T13:55:04.819Z,101219.41
2023-05-04T13:57:31.914Z,101228.34
2023-05-04T14:00:07.131Z,101221.28
2023-05-04T14:02:41.225Z,101211.81
2023-05-04T14:05:09.181Z,101201.50
2023-05-04T14:07:36.399Z,101191.66
2023-05-04T14:10:03.830Z,101187.38
2023-05-04T14:12:30.830Z,101178.53
2023-05-04T14:14:59.064Z,101177.44
2023-05-04T14:17:25.919Z,101166.00
2023-05-04T14:19:52.774Z,101159.56
2023-05-04T14:22:19.540Z,101166.84
2023-05-04T14:24:46.360Z,101166.84
2023-05-04T14:27:13.163Z,101166.84
2023-05-04T14:29:39.982Z,101164.16
2023-05-04T14:32:07.046Z,101163.34
2023-05-04T14:34:33.906Z,101157.03
2023-05-04T14:37:01.646Z,101150.84
2023-05-04T14:39:29.637Z,101160.63
2023-05-04T14:41:58.646Z,101150.22
2023-05-04T14:44:29.898Z,101146.31
2023-05-04T14:47:37.212Z,101145.63
2023-05-04T14:50:06.404Z,101160.25
2023-05-04T14:52:33.553Z,101158.13
2023-05-04T14:55:00.431Z,101158.41
2023-05-04T14:57:27.488Z,101156.47
2023-05-04T14:59:54.762Z,101144.97
2023-05-04T15:02:21.578Z,101147.72
2023-05-04T15:04:49.242Z,101156.91
2023-05-04T15:07:18.187Z,101150.91
2023-05-04T15:09:44.997Z,101143.44
2023-05-04T15:12:12.527Z,101137.88
2023-05-04T15:14:39.392Z,101136.16
2023-05-04T15:17:07.366Z,101139.44
2023-05-04T15:19:38.145Z,101145.59
2023-05-04T15:22:06.460Z,101135.59
2023-05-04T15:24:33.455Z,101132.81
2023-05-04T15:27:00.283Z,101122.94
2023-05-04T15:29:27.312Z,101121.75
2023-05-04T15:31:55.315Z,101114.84
2023-05-04T15:34:22.388Z,101110.78
2023-05-04T15:36:52.136Z,101108.88
2023-05-04T15:39:18.977Z,101096.63
2023-05-04T15:41:45.749Z,101107.97
2023-05-04T15:44:12.513Z,101107.78
2023-05-04T15:46:39.365Z,101103.44
2023-05-04T15:49:06.345Z,101120.31
2023-05-04T15:51:33.479Z,101110.00
2023-05-04T15:54:00.436Z,101103.06
2023-05-04T15:56:28.857Z,101100.66
2023-05-04T15:58:55.864Z,101101.84
2023-05-04T16:01:22.868Z,101098.94
2023-05-04T16:03:49.992Z,101094.97
2023-05-04T16:06:17.618Z,101090.44
2023-05-04T16:08:44.521Z,101087.63
2023-05-04T16:11:11.471Z,101095.44
2023-05-04T16:13:38.348Z,101089.84
2023-05-04T16:16:05.702Z,101081.44
2023-05-04T16:18:32.521Z,101079.03
2023-05-04T16:20:59.382Z,101079.28
2023-05-04T16:23:28.053Z,101063.81
2023-05-04T16:25:54.980Z,101067.59
2023-05-04T16:28:22.037Z,101062.41
2023-05-04T16:30:50.111Z,101053.47
2023-05-04T16:33:17.354Z,101054.91
2023-05-04T16:35:44.316Z,101045.31
2023-05-04T16:38:13.330Z,101045.66
2023-05-04T16:40:42.150Z,101049.44
2023-05-04T16:43:10.443Z,101043.25
2023-05-04T16:45:38.362Z,101040.50
2023-05-04T16:48:06.277Z,101041.38
2023-05-04T16:50:33.378Z,101047.75
2023-05-04T16:53:00.543Z,101049.72
2023-05-04T16:55:27.493Z,101044.03
2023-05-04T16:57:58.475Z,101051.22
2023-05-04T17:00:25.745Z,101055.03
2023-05-04T17:02:53.188Z,101045.91
2023-05-04T17:05:21.031Z,101046.13
2023-05-04T17:07:48.521Z,101040.66
2023-05-04T17:10:15.475Z,101046.31
2023-05-04T17:12:42.643Z,101046.91
2023-05-04T17:15:11.253Z,101044.63
2023-05-04T17:17:38.265Z,101037.50
2023-05-04T17:20:06.741Z,101039.78
2023-05-04T17:22:33.740Z,101035.50
2023-05-04T17:25:00.526Z,101041.75
2023-05-04T17:27:27.394Z,101045.59
2023-05-04T17:29:54.205Z,101043.97
2023-05-04T17:32:21.313Z,101046.44
2023-05-04T17:34:48.281Z,101041.31
2023-05-04T17:37:15.056Z,101042.06
2023-05-04T17:39:41.838Z,101040.72
2023-05-04T17:42:08.753Z,101038.53
2023-05-04T17:44:35.550Z,101032.53
2023-05-04T17:47:02.423Z,101038.94
2023-05-04T17:49:29.528Z,101037.81
2023-05-04T17:51:56.509Z,101030.28
2023-05-04T17:54:23.415Z,101033.78
2023-05-04T17:56:50.256Z,101034.50
2023-05-04T17:59:17.771Z,101040.38
2023-05-04T18:01:45.820Z,101039.00
2023-05-04T18:04:12.816Z,101045.25
2023-05-04T18:06:39.634Z,101049.78
2023-05-04T18:09:06.541Z,101045.00
2023-05-04T18:11:33.424Z,101050.19
2023-05-04T18:14:00.198Z,101046.44
2023-05-04T18:16:27.086Z,101039.97
2023-05-04T18:18:54.058Z,101044.47
2023-05-04T18:21:21.119Z,101047.28
2023-05-04T18:23:47.960Z,101041.63
2023-05-04T18:26:20.251Z,101047.34
2023-05-04T18:28:47.113Z,101048.38
2023-05-04T18:31:14.572Z,101054.97
2023-05-04T18:33:42.118Z,101055.63
2023-05-04T18:36:09.194Z,101058.44
2023-05-04T18:38:37.212Z,101054.00
2023-05-04T18:41:05.320Z,101052.97
2023-05-04T18:43:32.366Z,101054.69
2023-05-04T18:46:07.188Z,101069.50
2023-05-04T18:48:34.095Z,101060.56
2023-05-04T18:51:01.032Z,101060.53
2023-05-04T18:53:28.946Z,101056.09
2023-05-04T18:56:06.863Z,101062.63
2023-05-04T18:58:37.058Z,101058.16
2023-05-04T19:01:04.933Z,101059.84
2023-05-04T19:03:32.984Z,101066.16
2023-05-04T19:05:59.956Z,101073.56
2023-05-04T19:08:27.014Z,101066.34
2023-05-04T19:11:02.956Z,101057.91
2023-05-04T19:13:31.228Z,101061.50
2023-05-04T19:15:58.049Z,101064.16
2023-05-04T19:18:25.000Z,101057.63
2023-05-04T19:20:51.826Z,101058.31
2023-05-04T19:23:18.798Z,101056.41
2023-05-04T19:25:45.573Z,101059.97
2023-05-04T19:28:12.584Z,101060.94
2023-05-04T19:30:41.060Z,101058.00
2023-05-04T19:33:11.042Z,101054.34
2023-05-04T19:35:37.925Z,101062.56
2023-05-04T19:38:06.635Z,101064.22
2023-05-04T19:40:34.562Z,101060.41
2023-05-04T19:43:01.731Z,101053.16
2023-05-04T19:45:28.676Z,101058.53
2023-05-04T19:47:55.915Z,101060.53
2023-05-04T19:50:22.783Z,101068.69
2023-05-04T19:52:50.386Z,101060.41
2023-05-04T19:55:17.543Z,101055.56
2023-05-04T19:57:44.336Z,101055.50
2023-05-04T20:00:12.714Z,101060.59
2023-05-04T20:02:39.853Z,101054.88
2023-05-04T20:05:07.187Z,101063.03
2023-05-04T20:07:34.021Z,101057.31
2023-05-04T20:10:01.061Z,101051.63
2023-05-04T20:12:27.859Z,101053.09
2023-05-04T20:14:54.792Z,101047.50
2023-05-04T20:17:21.957Z,101049.13
2023-05-04T20:19:49.380Z,101044.28
2023-05-04T20:22:16.493Z,101046.63
2023-05-04T20:24:43.388Z,101041.78
2023-05-04T20:27:10.286Z,101048.53
2023-05-04T20:29:37.708Z,101044.09
2023-05-04T20:32:05.662Z,101045.09
2023-05-04T20:34:33.108Z,101042.38
2023-05-04T20:37:00.342Z,101022.81
2023-05-04T20:39:27.285Z,101028.28
2023-05-04T20:41:54.106Z,101021.41
2023-05-04T20:44:20.928Z,101014.53
2023-05-04T20:46:47.822Z,101015.53
2023-05-04T20:49:15.124Z,101008.81
2023-05-04T20:51:42.336Z,101019.19
2023-05-04T20:54:09.397Z,101017.63
2023-05-04T20:56:36.457Z,101017.06
2023-05-04T20:59:03.328Z,101016.38
2023-05-04T21:01:30.262Z,101014.97
2023-05-04T21:03:57.271Z,101005.50
2023-05-04T21:06:24.601Z,101002.19
2023-05-04T21:08:51.644Z,101001.78
2023-05-04T21:11:18.523Z,101001.22
2023-05-04T21:13:45.362Z,100999.63
2023-05-04T21:16:12.523Z,100998.94
2023-05-04T21:18:40.688Z,101002.69
2023-05-04T21:21:07.547Z,101002.09
2023-05-04T21:23:34.330Z,101004.97
2023-05-04T21:26:04.692Z,101003.25
2023-05-04T21:28:32.269Z,101000.38
2023-05-04T21:30:59.223Z,100997.53
2023-05-04T21:33:26.247Z,100993.78
2023-05-04T21:35:53.131Z,100991.16
2023-05-04T21:38:21.984Z,100998.38
2023-05-04T21:40:49.510Z,101000.34
2023-05-04T21:43:16.443Z,100996.31
2023-05-04T21:45:43.340Z,100992.56
2023-05-04T21:48:10.429Z,100996.31
2023-05-04T21:50:37.512Z,100996.31
2023-05-04T21:53:04.343Z,100991.72
2023-05-04T21:55:31.118Z,100986.53
2023-05-04T21:57:57.863Z,100988.41
2023-05-04T22:00:24.977Z,100985.97
2023-05-04T22:02:54.940Z,100982.53
2023-05-04T22:05:22.587Z,100978.25
2023-05-04T22:07:50.012Z,100981.25
2023-05-04T22:10:17.733Z,100976.25
2023-05-04T22:12:44.594Z,100979.97
2023-05-04T22:15:11.924Z,100990.63
2023-05-04T22:17:38.970Z,100986.59
2023-05-04T22:20:07.080Z,100993.31
2023-05-04T22:22:34.848Z,100983.94
2023-05-04T22:25:01.908Z,100988.88
2023-05-04T22:27:28.796Z,100985.13
2023-05-04T22:29:55.726Z,100983.56
2023-05-04T22:32:22.507Z,100979.81
2023-05-04T22:34:49.421Z,100987.28
2023-05-04T22:37:16.392Z,100988.88
2023-05-04T22:39:43.266Z,100985.72
2023-05-04T22:42:10.297Z,100984.59
2023-05-04T22:44:37.149Z,100981.59
2023-05-04T22:47:04.277Z,100979.13
2023-05-04T22:49:31.089Z,100978.03
2023-05-04T22:51:57.932Z,100982.63
2023-05-04T22:54:25.736Z,100986.53
2023-05-04T22:56:52.582Z,100984.94
2023-05-04T22:59:19.381Z,100986.09
2023-05-04T23:01:46.637Z,100988.69
2023-05-04T23:04:13.545Z,100994.72
2023-05-04T23:06:40.370Z,100998.44
2023-05-04T23:09:07.169Z,100996.19
2023-05-04T23:11:34.023Z,100999.34
2023-05-04T23:14:01.062Z,101016.03
2023-05-04T23:16:28.368Z,101017.44
2023-05-04T23:18:55.351Z,101017.16
2023-05-04T23:21:22.206Z,101018.59
2023-05-04T23:23:51.912Z,101019.06
2023-05-04T23:26:19.178Z,101014.19
2023-05-04T23:28:46.181Z,101017.06
2023-05-04T23:31:13.144Z,101022.66
2023-05-04T23:33:40.085Z,101020.63
2023-05-04T23:36:07.253Z,101018.34
2023-05-04T23:38:34.867Z,101014.59
2023-05-04T23:41:05.845Z,101017.75
2023-05-04T23:43:32.731Z,101018.88
2023-05-04T23:46:04.370Z,101027.50
2023-05-04T23:48:32.634Z,101037.81
2023-05-04T23:51:05.811Z,101030.03
2023-05-04T23:53:35.163Z,101038.66
2023-05-04T23:56:06.489Z,101044.13
2023-05-04T23:58:34.935Z,101040.69
